Vilanova de Sau





Hora UTC 04:55
Temperatura 8.7 ºC
Humitat 98.3 %
Pressió 1017.8 hPa
Pluja 0.0 mm
Velocitat vent 0.0 km/h
Direcció vent NNE
Radiació solar 0.0 W/m²
Fuel 80.9 %

Dades diàries 2020-09-29



Hora UTC (hivern +1h; estiu +2h)
Temperatura (ºC) Humitat (%) Pressió (hPa) Velocitat vent (km/h) Precipitació (mm) Fuel (%) Radiació solar (W/m²)
Hora UTC Aire Humitat Pressió Vel. Dir. Vel. Max Dir. Intent. màx 5 min. Fuel Rad. Sol.
00:05 9.6 96.6 1017.8 0.1 SW 0.1 SW 0.0 55.8 0.0
00:10 9.6 96.9 1017.9 1.0 SW 3.4 SW 0.0 56.6 0.0
00:15 9.7 97.1 1017.9 1.4 SW 3.4 SW 0.0 57.2 0.0
00:20 9.7 97.1 1017.9 1.1 WSW 3.4 SW 0.0 57.6 0.0
00:25 9.7 97.0 1017.9 0.1 WSW 3.4 WSW 0.0 58.0 0.0
00:30 9.6 97.1 1017.9 0.9 WSW 3.4 WSW 0.0 58.4 0.0
00:35 9.6 97.1 1017.9 0.8 WSW 3.4 WSW 0.0 58.8 0.0
00:40 9.7 97.3 1017.8 2.0 WSW 3.4 WSW 0.0 59.4 0.0
00:45 9.7 97.2 1017.8 1.6 WSW 3.4 WSW 0.0 59.8 0.0
00:50 9.7 97.2 1017.8 1.3 SW 6.1 SW 0.0 60.2 0.0
00:55 9.6 97.2 1017.7 1.6 WSW 6.1 WSW 0.0 60.6 0.0
01:00 9.6 97.3 1017.8 2.4 SW 3.4 SW 0.0 61.1 0.0
01:05 9.7 97.4 1017.7 1.2 W 3.4 SW 0.0 61.5 0.0
01:10 9.7 97.2 1017.7 0.9 SW 3.4 WSW 0.0 61.9 0.0
01:15 9.6 97.2 1017.8 0.1 SW 3.4 SW 0.0 62.3 0.0
01:20 9.6 97.2 1017.7 0.0 NNE 0.0 SW 0.0 62.6 0.0
01:25 9.5 97.2 1017.7 0.0 NNE 0.0 SW 0.0 63.0 0.0
01:30 9.5 97.3 1017.7 0.0 NNE 0.0 SW 0.0 63.5 0.0
01:35 9.4 97.2 1017.7 0.0 NNE 0.0 SW 0.0 63.9 0.0
01:40 9.3 97.3 1017.7 0.1 SW 3.4 SW 0.0 64.3 0.0
01:45 9.3 97.4 1017.6 2.0 SW 3.4 SW 0.0 64.8 0.0
01:50 9.3 97.4 1017.6 1.1 SW 3.4 SW 0.0 65.3 0.0
01:55 9.2 97.3 1017.6 1.1 SW 3.4 SW 0.0 65.6 0.0
02:00 9.2 97.4 1017.6 2.2 SW 6.1 SW 0.0 66.1 0.0
02:05 9.1 97.5 1017.6 2.2 WSW 6.1 WSW 0.0 66.5 0.0
02:10 9.2 97.5 1017.7 0.0 NNE 0.0 WSW 0.0 67.0 0.0
02:15 9.1 97.4 1017.7 0.0 NNE 0.0 WSW 0.0 67.2 0.0
02:20 8.9 97.3 1017.8 0.0 NNE 0.0 WSW 0.0 67.4 0.0
02:25 8.8 97.4 1017.7 0.0 NNE 0.0 WSW 0.0 67.9 0.0
02:30 8.8 97.5 1017.7 0.0 NNE 0.0 WSW 0.0 68.5 0.0
02:35 8.7 97.5 1017.7 0.0 NNE 0.0 WSW 0.0 69.0 0.0
02:40 8.6 97.6 1017.7 0.0 NNE 0.0 WSW 0.0 69.4 0.0
02:45 8.6 97.8 1017.6 0.0 NNE 0.0 WSW 0.0 70.0 0.0
02:50 8.7 97.8 1017.6 0.0 NNE 0.0 NW 0.0 70.5 0.0
02:55 8.7 97.9 1017.6 0.0 NNE 0.0 NW 0.0 71.1 0.0
03:00 8.6 97.8 1017.5 0.0 NNE 0.0 WNW 0.0 71.5 0.0
03:05 8.5 97.8 1017.5 0.0 NNE 0.0 WNW 0.0 71.9 0.0
03:10 8.5 98.0 1017.5 1.0 SW 3.4 SW 0.0 72.6 0.0
03:15 8.6 98.1 1017.5 1.1 SW 3.4 SW 0.0 73.2 0.0
03:20 8.5 98.0 1017.5 2.7 SW 6.1 SW 0.0 73.6 0.0
03:25 8.6 98.1 1017.5 0.8 SW 3.4 SW 0.0 74.1 0.0
03:30 8.6 98.1 1017.5 2.1 SW 6.1 SW 0.0 74.5 0.0
03:35 8.5 98.1 1017.5 0.7 SW 6.1 WSW 0.0 75.0 0.0
03:40 8.5 98.1 1017.5 0.0 NNE 0.0 SW 0.0 75.5 0.0
03:45 8.6 98.2 1017.5 0.0 NNE 0.0 SW 0.0 75.8 0.0
03:50 8.6 98.2 1017.5 0.0 NNE 0.0 SW 0.0 76.2 0.0
03:55 8.7 98.3 1017.5 0.0 NNE 0.0 SW 0.0 76.6 0.0
04:00 8.8 98.3 1017.5 0.0 NNE 0.0 SW 0.0 77.0 0.0
04:05 8.9 98.3 1017.5 0.0 NNE 0.0 SW 0.0 77.3 0.0
04:10 9.0 98.3 1017.6 0.0 NNE 0.0 SW 0.0 77.6 0.0
04:15 9.0 98.2 1017.6 0.0 NNE 0.0 SW 0.0 77.9 0.0
04:20 8.9 98.1 1017.6 0.0 NNE 0.0 S 0.0 78.1 0.0
04:25 8.8 98.1 1017.7 0.0 NNE 0.0 S 0.0 78.5 0.0
04:30 8.8 98.2 1017.7 0.0 NNE 0.0 S 0.0 78.9 0.0
04:35 8.8 98.3 1017.7 0.0 NNE 0.0 S 0.0 79.5 0.0
04:40 8.8 98.2 1017.6 0.0 NNE 0.0 S 0.0 79.9 0.0
04:45 8.8 98.3 1017.6 0.0 NNE 0.0 SW 0.0 80.2 0.0
04:50 8.8 98.3 1017.7 0.0 NNE 0.0 SW 0.0 80.6 0.0
04:55 8.7 98.3 1017.8 0.0 NNE 0.0 SW 0.0 80.9 0.0
Màxima 9.7 98.3 1017.9 2.7 SW 6.1 WSW 0.0 80.9 0.0
Mínima 8.5 96.6 1017.5 55.8
Total 0.0